sensor_id;sensor_type;location;lat;lon;timestamp;pressure;altitude;pressure_sealevel;temperature;humidity
6433;BME280;3249;42.690;23.260;2023-10-31T00:00:12;94439.72;;;9.32;100.00
6433;BME280;3249;42.690;23.260;2023-10-31T00:02:41;94449.19;;;9.38;100.00
6433;BME280;3249;42.690;23.260;2023-10-31T00:05:10;94480.28;;;9.68;100.00
6433;BME280;3249;42.690;23.260;2023-10-31T00:07:39;94473.50;;;9.80;100.00
6433;BME280;3249;42.690;23.260;2023-10-31T00:10:08;94462.53;;;9.53;100.00
6433;BME280;3249;42.690;23.260;2023-10-31T00:12:37;94457.53;;;9.20;100.00
6433;BME280;3249;42.690;23.260;2023-10-31T00:15:10;94465.38;;;9.38;100.00
6433;BME280;3249;42.690;23.260;2023-10-31T00:17:39;94446.91;;;9.10;100.00
6433;BME280;3249;42.690;23.260;2023-10-31T00:20:09;94457.09;;;9.36;100.00
6433;BME280;3249;42.690;23.260;2023-10-31T00:22:37;94439.41;;;9.02;100.00
6433;BME280;3249;42.690;23.260;2023-10-31T00:25:07;94448.09;;;9.08;100.00
6433;BME280;3249;42.690;23.260;2023-10-31T00:27:36;94443.22;;;8.93;100.00
6433;BME280;3249;42.690;23.260;2023-10-31T00:30:07;94430.81;;;8.77;100.00
6433;BME280;3249;42.690;23.260;2023-10-31T00:32:38;94439.06;;;8.92;100.00
6433;BME280;3249;42.690;23.260;2023-10-31T00:35:08;94440.03;;;8.98;100.00
6433;BME280;3249;42.690;23.260;2023-10-31T00:37:38;94425.47;;;8.66;100.00
6433;BME280;3249;42.690;23.260;2023-10-31T00:40:09;94390.75;;;8.76;100.00
6433;BME280;3249;42.690;23.260;2023-10-31T00:42:40;94439.03;;;9.05;100.00
6433;BME280;3249;42.690;23.260;2023-10-31T00:45:10;94445.34;;;9.09;100.00
6433;BME280;3249;42.690;23.260;2023-10-31T00:47:42;94441.09;;;9.28;100.00
6433;BME280;3249;42.690;23.260;2023-10-31T00:50:11;94433.28;;;9.10;100.00
6433;BME280;3249;42.690;23.260;2023-10-31T00:52:41;94427.16;;;9.11;100.00
6433;BME280;3249;42.690;23.260;2023-10-31T00:55:10;94420.94;;;8.74;100.00
6433;BME280;3249;42.690;23.260;2023-10-31T00:57:39;94418.97;;;8.76;100.00
6433;BME280;3249;42.690;23.260;2023-10-31T01:00:08;94420.09;;;8.93;100.00
6433;BME280;3249;42.690;23.260;2023-10-31T01:02:37;94413.03;;;8.76;100.00
6433;BME280;3249;42.690;23.260;2023-10-31T01:05:10;94395.34;;;8.42;100.00
6433;BME280;3249;42.690;23.260;2023-10-31T01:07:40;94415.66;;;8.63;100.00
6433;BME280;3249;42.690;23.260;2023-10-31T01:10:09;94409.16;;;8.47;100.00
6433;BME280;3249;42.690;23.260;2023-10-31T01:12:38;94411.09;;;8.58;100.00
6433;BME280;3249;42.690;23.260;2023-10-31T01:15:07;94395.09;;;8.69;100.00
6433;BME280;3249;42.690;23.260;2023-10-31T01:17:36;94406.31;;;8.81;100.00
6433;BME280;3249;42.690;23.260;2023-10-31T01:20:10;94401.47;;;8.28;100.00
6433;BME280;3249;42.690;23.260;2023-10-31T01:22:39;94401.69;;;8.26;100.00
6433;BME280;3249;42.690;23.260;2023-10-31T01:25:08;94393.59;;;8.23;100.00
6433;BME280;3249;42.690;23.260;2023-10-31T01:27:37;94401.28;;;8.29;100.00
6433;BME280;3249;42.690;23.260;2023-10-31T01:30:08;94371.72;;;8.27;100.00
6433;BME280;3249;42.690;23.260;2023-10-31T01:32:37;94398.50;;;8.50;100.00
6433;BME280;3249;42.690;23.260;2023-10-31T01:35:10;94382.72;;;8.34;100.00
6433;BME280;3249;42.690;23.260;2023-10-31T01:37:39;94386.69;;;8.04;100.00
6433;BME280;3249;42.690;23.260;2023-10-31T01:40:12;94386.88;;;8.41;100.00
6433;BME280;3249;42.690;23.260;2023-10-31T01:42:41;94379.94;;;7.96;100.00
6433;BME280;3249;42.690;23.260;2023-10-31T01:45:11;94386.28;;;8.26;100.00
6433;BME280;3249;42.690;23.260;2023-10-31T01:47:39;94337.19;;;8.03;100.00
6433;BME280;3249;42.690;23.260;2023-10-31T01:50:11;94391.19;;;8.41;100.00
6433;BME280;3249;42.690;23.260;2023-10-31T01:52:40;94389.84;;;8.19;100.00
6433;BME280;3249;42.690;23.260;2023-10-31T01:55:10;94392.19;;;8.40;100.00
6433;BME280;3249;42.690;23.260;2023-10-31T01:57:40;94357.50;;;7.85;100.00
6433;BME280;3249;42.690;23.260;2023-10-31T02:00:11;94392.59;;;8.30;100.00
6433;BME280;3249;42.690;23.260;2023-10-31T02:02:41;94373.84;;;8.17;100.00
6433;BME280;3249;42.690;23.260;2023-10-31T02:05:12;94385.69;;;8.24;100.00
6433;BME280;3249;42.690;23.260;2023-10-31T02:07:44;94374.03;;;8.28;100.00
6433;BME280;3249;42.690;23.260;2023-10-31T02:10:14;94386.47;;;8.18;100.00
6433;BME280;3249;42.690;23.260;2023-10-31T02:12:43;94369.72;;;8.16;100.00
6433;BME280;3249;42.690;23.260;2023-10-31T02:15:12;94380.34;;;8.19;100.00
6433;BME280;3249;42.690;23.260;2023-10-31T02:17:41;94366.97;;;8.30;100.00
6433;BME280;3249;42.690;23.260;2023-10-31T02:20:13;94373.47;;;8.26;100.00
6433;BME280;3249;42.690;23.260;2023-10-31T02:22:45;94354.94;;;7.98;100.00
6433;BME280;3249;42.690;23.260;2023-10-31T02:25:17;94348.41;;;8.15;100.00
6433;BME280;3249;42.690;23.260;2023-10-31T02:27:46;94334.44;;;7.98;100.00
6433;BME280;3249;42.690;23.260;2023-10-31T02:30:16;94364.41;;;8.30;100.00
6433;BME280;3249;42.690;23.260;2023-10-31T02:32:45;94329.50;;;8.03;100.00
6433;BME280;3249;42.690;23.260;2023-10-31T02:35:16;94355.50;;;8.00;100.00
6433;BME280;3249;42.690;23.260;2023-10-31T02:37:48;94337.38;;;8.15;100.00
6433;BME280;3249;42.690;23.260;2023-10-31T02:40:18;94365.19;;;8.37;100.00
6433;BME280;3249;42.690;23.260;2023-10-31T02:42:47;94357.50;;;8.05;100.00
6433;BME280;3249;42.690;23.260;2023-10-31T02:45:16;94379.38;;;8.33;100.00
6433;BME280;3249;42.690;23.260;2023-10-31T02:47:45;94369.50;;;7.91;100.00
6433;BME280;3249;42.690;23.260;2023-10-31T02:50:11;94347.63;;;7.89;100.00
6433;BME280;3249;42.690;23.260;2023-10-31T02:52:40;94365.78;;;8.26;100.00
6433;BME280;3249;42.690;23.260;2023-10-31T02:55:12;94366.94;;;7.91;100.00
6433;BME280;3249;42.690;23.260;2023-10-31T02:57:42;94369.31;;;8.12;100.00
6433;BME280;3249;42.690;23.260;2023-10-31T03:00:12;94348.78;;;8.12;100.00
6433;BME280;3249;42.690;23.260;2023-10-31T03:02:41;94376.44;;;7.97;100.00
6433;BME280;3249;42.690;23.260;2023-10-31T03:05:10;94370.72;;;8.15;100.00
6433;BME280;3249;42.690;23.260;2023-10-31T03:07:39;94363.41;;;8.31;100.00
6433;BME280;3249;42.690;23.260;2023-10-31T03:10:12;94375.66;;;8.29;100.00
6433;BME280;3249;42.690;23.260;2023-10-31T03:12:41;94368.53;;;8.31;100.00
6433;BME280;3249;42.690;23.260;2023-10-31T03:15:10;94377.63;;;7.95;100.00
6433;BME280;3249;42.690;23.260;2023-10-31T03:17:39;94371.09;;;8.18;100.00
6433;BME280;3249;42.690;23.260;2023-10-31T03:20:09;94352.78;;;7.69;100.00
6433;BME280;3249;42.690;23.260;2023-10-31T03:22:38;94360.06;;;7.92;100.00
6433;BME280;3249;42.690;23.260;2023-10-31T03:25:08;94347.22;;;8.05;100.00
6433;BME280;3249;42.690;23.260;2023-10-31T03:27:39;94328.69;;;8.09;100.00
6433;BME280;3249;42.690;23.260;2023-10-31T03:30:09;94335.41;;;8.23;100.00
6433;BME280;3249;42.690;23.260;2023-10-31T03:32:38;94339.13;;;8.34;100.00
6433;BME280;3249;42.690;23.260;2023-10-31T03:35:08;94345.63;;;8.49;100.00
6433;BME280;3249;42.690;23.260;2023-10-31T03:37:38;94346.03;;;8.33;100.00
6433;BME280;3249;42.690;23.260;2023-10-31T03:40:08;94346.78;;;8.53;100.00
6433;BME280;3249;42.690;23.260;2023-10-31T03:42:41;94351.97;;;8.21;100.00
6433;BME280;3249;42.690;23.260;2023-10-31T03:45:10;94356.28;;;8.07;100.00
6433;BME280;3249;42.690;23.260;2023-10-31T03:47:40;94360.63;;;8.33;100.00
6433;BME280;3249;42.690;23.260;2023-10-31T03:50:09;94320.59;;;8.12;100.00
6433;BME280;3249;42.690;23.260;2023-10-31T03:52:38;94354.72;;;8.19;100.00
6433;BME280;3249;42.690;23.260;2023-10-31T03:55:08;94349.41;;;7.88;100.00
6433;BME280;3249;42.690;23.260;2023-10-31T03:57:37;94356.28;;;8.07;100.00
6433;BME280;3249;42.690;23.260;2023-10-31T04:00:11;94353.53;;;8.28;100.00
6433;BME280;3249;42.690;23.260;2023-10-31T04:02:40;94350.56;;;8.31;100.00
6433;BME280;3249;42.690;23.260;2023-10-31T04:05:09;94356.66;;;8.43;100.00
6433;BME280;3249;42.690;23.260;2023-10-31T04:07:37;94352.75;;;8.15;100.00
6433;BME280;3249;42.690;23.260;2023-10-31T04:10:08;94338.75;;;7.91;100.00
6433;BME280;3249;42.690;23.260;2023-10-31T04:12:36;94342.31;;;8.03;100.00
6433;BME280;3249;42.690;23.260;2023-10-31T04:15:10;94338.97;;;7.70;100.00
6433;BME280;3249;42.690;23.260;2023-10-31T04:17:38;94333.84;;;7.77;100.00
6433;BME280;3249;42.690;23.260;2023-10-31T04:20:09;94320.63;;;7.86;100.00
6433;BME280;3249;42.690;23.260;2023-10-31T04:22:38;94290.50;;;7.62;100.00
6433;BME280;3249;42.690;23.260;2023-10-31T04:25:07;94317.47;;;7.78;100.00
6433;BME280;3249;42.690;23.260;2023-10-31T04:27:37;94329.09;;;8.00;100.00
6433;BME280;3249;42.690;23.260;2023-10-31T04:30:07;94316.09;;;8.01;100.00
6433;BME280;3249;42.690;23.260;2023-10-31T04:32:38;94313.13;;;7.59;100.00
6433;BME280;3249;42.690;23.260;2023-10-31T04:35:08;94322.59;;;7.71;100.00
6433;BME280;3249;42.690;23.260;2023-10-31T04:37:37;94326.72;;;7.33;100.00
6433;BME280;3249;42.690;23.260;2023-10-31T04:40:07;94319.44;;;7.24;100.00
6433;BME280;3249;42.690;23.260;2023-10-31T04:42:38;94324.00;;;7.41;100.00
6433;BME280;3249;42.690;23.260;2023-10-31T04:45:08;94332.25;;;7.56;100.00
6433;BME280;3249;42.690;23.260;2023-10-31T04:47:40;94333.84;;;7.70;100.00
6433;BME280;3249;42.690;23.260;2023-10-31T04:50:09;94350.22;;;7.76;100.00
6433;BME280;3249;42.690;23.260;2023-10-31T04:52:38;94351.16;;;7.29;100.00
6433;BME280;3249;42.690;23.260;2023-10-31T04:55:08;94339.16;;;7.49;100.00
6433;BME280;3249;42.690;23.260;2023-10-31T04:57:37;94353.34;;;7.71;100.00
6433;BME280;3249;42.690;23.260;2023-10-31T05:00:07;94352.78;;;7.76;100.00
6433;BME280;3249;42.690;23.260;2023-10-31T05:02:36;94353.75;;;7.75;100.00
6433;BME280;3249;42.690;23.260;2023-10-31T05:05:08;94339.28;;;7.22;100.00
6433;BME280;3249;42.690;23.260;2023-10-31T05:07:37;94330.13;;;6.87;100.00
6433;BME280;3249;42.690;23.260;2023-10-31T05:10:08;94347.97;;;7.27;100.00
6433;BME280;3249;42.690;23.260;2023-10-31T05:12:37;94340.09;;;7.22;100.00
6433;BME280;3249;42.690;23.260;2023-10-31T05:15:07;94342.81;;;7.08;100.00
6433;BME280;3249;42.690;23.260;2023-10-31T05:17:36;94316.63;;;7.19;100.00
6433;BME280;3249;42.690;23.260;2023-10-31T05:20:09;94338.88;;;7.05;100.00
6433;BME280;3249;42.690;23.260;2023-10-31T05:22:40;94341.66;;;7.10;100.00
6433;BME280;3249;42.690;23.260;2023-10-31T05:25:10;94359.66;;;7.49;100.00
6433;BME280;3249;42.690;23.260;2023-10-31T05:27:39;94358.41;;;7.26;100.00
6433;BME280;3249;42.690;23.260;2023-10-31T05:30:09;94331.88;;;7.46;100.00
6433;BME280;3249;42.690;23.260;2023-10-31T05:32:38;94368.34;;;7.74;100.00
6433;BME280;3249;42.690;23.260;2023-10-31T05:35:10;94366.75;;;7.86;100.00
6433;BME280;3249;42.690;23.260;2023-10-31T05:37:40;94327.31;;;7.48;100.00
6433;BME280;3249;42.690;23.260;2023-10-31T05:40:10;94358.88;;;7.94;100.00
6433;BME280;3249;42.690;23.260;2023-10-31T05:42:39;94360.66;;;7.68;100.00
6433;BME280;3249;42.690;23.260;2023-10-31T05:45:09;94369.69;;;7.96;100.00
6433;BME280;3249;42.690;23.260;2023-10-31T05:47:38;94357.09;;;8.14;100.00
6433;BME280;3249;42.690;23.260;2023-10-31T05:50:10;94375.84;;;8.21;100.00
6433;BME280;3249;42.690;23.260;2023-10-31T05:52:39;94377.97;;;8.50;100.00
6433;BME280;3249;42.690;23.260;2023-10-31T05:55:08;94374.41;;;8.64;100.00
6433;BME280;3249;42.690;23.260;2023-10-31T05:57:37;94385.38;;;8.78;100.00
6433;BME280;3249;42.690;23.260;2023-10-31T06:00:07;94349.13;;;8.61;100.00
6433;BME280;3249;42.690;23.260;2023-10-31T06:02:39;94391.28;;;8.85;100.00
6433;BME280;3249;42.690;23.260;2023-10-31T06:05:11;94405.91;;;8.91;100.00
6433;BME280;3249;42.690;23.260;2023-10-31T06:07:40;94409.22;;;8.91;100.00
6433;BME280;3249;42.690;23.260;2023-10-31T06:10:07;94411.06;;;8.84;100.00
6433;BME280;3249;42.690;23.260;2023-10-31T06:12:36;94403.16;;;8.79;100.00
6433;BME280;3249;42.690;23.260;2023-10-31T06:15:07;94407.09;;;8.75;100.00
6433;BME280;3249;42.690;23.260;2023-10-31T06:17:37;94400.59;;;8.79;100.00
6433;BME280;3249;42.690;23.260;2023-10-31T06:20:07;94394.31;;;8.62;100.00
6433;BME280;3249;42.690;23.260;2023-10-31T06:22:39;94399.97;;;8.90;100.00
6433;BME280;3249;42.690;23.260;2023-10-31T06:25:08;94391.81;;;9.06;100.00
6433;BME280;3249;42.690;23.260;2023-10-31T06:27:37;94398.09;;;9.17;100.00
6433;BME280;3249;42.690;23.260;2023-10-31T06:30:08;94396.25;;;9.30;100.00
6433;BME280;3249;42.690;23.260;2023-10-31T06:32:37;94403.72;;;9.38;100.00
6433;BME280;3249;42.690;23.260;2023-10-31T06:35:07;94399.28;;;9.52;100.00
6433;BME280;3249;42.690;23.260;2023-10-31T06:37:36;94403.78;;;9.63;100.00
6433;BME280;3249;42.690;23.260;2023-10-31T06:40:08;94395.97;;;9.76;100.00
6433;BME280;3249;42.690;23.260;2023-10-31T06:42:38;94389.59;;;9.85;100.00
6433;BME280;3249;42.690;23.260;2023-10-31T06:45:08;94386.94;;;9.98;100.00
6433;BME280;3249;42.690;23.260;2023-10-31T06:47:37;94383.56;;;9.98;100.00
6433;BME280;3249;42.690;23.260;2023-10-31T06:50:08;94388.81;;;10.16;100.00
6433;BME280;3249;42.690;23.260;2023-10-31T06:52:37;94396.44;;;10.47;100.00
6433;BME280;3249;42.690;23.260;2023-10-31T06:55:09;94400.47;;;10.61;100.00
6433;BME280;3249;42.690;23.260;2023-10-31T06:57:39;94398.78;;;10.73;100.00
6433;BME280;3249;42.690;23.260;2023-10-31T07:00:10;94401.50;;;10.96;100.00
6433;BME280;3249;42.690;23.260;2023-10-31T07:02:39;94401.28;;;10.79;100.00
6433;BME280;3249;42.690;23.260;2023-10-31T07:05:08;94392.69;;;11.03;100.00
6433;BME280;3249;42.690;23.260;2023-10-31T07:07:37;94404.06;;;10.96;100.00
6433;BME280;3249;42.690;23.260;2023-10-31T07:10:09;94388.38;;;11.15;100.00
6433;BME280;3249;42.690;23.260;2023-10-31T07:12:39;94385.16;;;11.20;100.00
6433;BME280;3249;42.690;23.260;2023-10-31T07:15:09;94380.72;;;11.27;100.00
6433;BME280;3249;42.690;23.260;2023-10-31T07:17:38;94392.19;;;11.31;100.00
6433;BME280;3249;42.690;23.260;2023-10-31T07:20:10;94391.47;;;11.53;100.00
6433;BME280;3249;42.690;23.260;2023-10-31T07:22:39;94384.66;;;11.59;100.00
6433;BME280;3249;42.690;23.260;2023-10-31T07:25:11;94382.47;;;11.74;100.00
6433;BME280;3249;42.690;23.260;2023-10-31T07:27:40;94372.63;;;11.71;100.00
6433;BME280;3249;42.690;23.260;2023-10-31T07:30:12;94387.31;;;11.82;100.00
6433;BME280;3249;42.690;23.260;2023-10-31T07:32:41;94372.00;;;11.87;100.00
6433;BME280;3249;42.690;23.260;2023-10-31T07:35:11;94382.34;;;12.10;100.00
6433;BME280;3249;42.690;23.260;2023-10-31T07:37:40;94378.78;;;12.34;100.00
6433;BME280;3249;42.690;23.260;2023-10-31T07:40:12;94345.13;;;12.40;100.00
6433;BME280;3249;42.690;23.260;2023-10-31T07:42:41;94373.50;;;12.63;100.00
6433;BME280;3249;42.690;23.260;2023-10-31T07:45:10;94372.03;;;12.79;100.00
6433;BME280;3249;42.690;23.260;2023-10-31T07:47:39;94372.00;;;12.90;100.00
6433;BME280;3249;42.690;23.260;2023-10-31T07:50:09;94370.00;;;12.69;100.00
6433;BME280;3249;42.690;23.260;2023-10-31T07:52:39;94368.88;;;12.88;100.00
6433;BME280;3249;42.690;23.260;2023-10-31T07:55:12;94371.81;;;13.03;100.00
6433;BME280;3249;42.690;23.260;2023-10-31T07:57:41;94358.84;;;13.15;100.00
6433;BME280;3249;42.690;23.260;2023-10-31T08:00:12;94328.28;;;13.12;100.00
6433;BME280;3249;42.690;23.260;2023-10-31T08:02:41;94356.19;;;13.38;100.00
6433;BME280;3249;42.690;23.260;2023-10-31T08:05:10;94357.94;;;13.49;100.00
6433;BME280;3249;42.690;23.260;2023-10-31T08:07:39;94357.53;;;13.29;100.00
6433;BME280;3249;42.690;23.260;2023-10-31T08:10:08;94362.31;;;13.48;100.00
6433;BME280;3249;42.690;23.260;2023-10-31T08:12:40;94352.19;;;13.75;100.00
6433;BME280;3249;42.690;23.260;2023-10-31T08:15:10;94348.81;;;13.91;100.00
6433;BME280;3249;42.690;23.260;2023-10-31T08:17:39;94356.28;;;14.04;100.00
6433;BME280;3249;42.690;23.260;2023-10-31T08:20:09;94343.28;;;14.16;100.00
6433;BME280;3249;42.690;23.260;2023-10-31T08:22:39;94334.97;;;13.97;100.00
6433;BME280;3249;42.690;23.260;2023-10-31T08:25:09;94334.00;;;13.86;100.00
6433;BME280;3249;42.690;23.260;2023-10-31T08:27:40;94312.22;;;14.16;100.00
6433;BME280;3249;42.690;23.260;2023-10-31T08:30:10;94319.41;;;14.14;100.00
6433;BME280;3249;42.690;23.260;2023-10-31T08:32:40;94319.97;;;14.49;100.00
6433;BME280;3249;42.690;23.260;2023-10-31T08:35:09;94309.25;;;14.62;100.00
6433;BME280;3249;42.690;23.260;2023-10-31T08:37:38;94323.63;;;14.53;100.00
6433;BME280;3249;42.690;23.260;2023-10-31T08:40:08;94312.34;;;14.59;100.00
6433;BME280;3249;42.690;23.260;2023-10-31T08:42:40;94301.38;;;14.73;100.00
6433;BME280;3249;42.690;23.260;2023-10-31T08:45:10;94301.00;;;14.65;100.00
6433;BME280;3249;42.690;23.260;2023-10-31T08:47:39;94271.00;;;14.69;100.00
6433;BME280;3249;42.690;23.260;2023-10-31T08:50:08;94286.59;;;14.95;100.00
6433;BME280;3249;42.690;23.260;2023-10-31T08:52:38;94278.72;;;14.85;100.00
6433;BME280;3249;42.690;23.260;2023-10-31T08:55:07;94273.94;;;14.99;100.00
6433;BME280;3249;42.690;23.260;2023-10-31T08:57:36;94279.53;;;15.12;100.00
6433;BME280;3249;42.690;23.260;2023-10-31T09:00:09;94283.22;;;15.16;100.00
6433;BME280;3249;42.690;23.260;2023-10-31T09:02:39;94262.78;;;14.98;100.00
6433;BME280;3249;42.690;23.260;2023-10-31T09:05:08;94258.22;;;15.32;100.00
6433;BME280;3249;42.690;23.260;2023-10-31T09:07:37;94256.03;;;15.45;99.68
6433;BME280;3249;42.690;23.260;2023-10-31T09:10:07;94263.75;;;15.67;98.59
6433;BME280;3249;42.690;23.260;2023-10-31T09:12:36;94258.75;;;15.60;98.29
6433;BME280;3249;42.690;23.260;2023-10-31T09:15:09;94245.94;;;15.49;100.00
6433;BME280;3249;42.690;23.260;2023-10-31T09:17:38;94243.59;;;15.47;100.00
6433;BME280;3249;42.690;23.260;2023-10-31T09:20:08;94234.59;;;15.55;96.86
6433;BME280;3249;42.690;23.260;2023-10-31T09:22:37;94242.69;;;15.63;96.97
6433;BME280;3249;42.690;23.260;2023-10-31T09:25:07;94236.63;;;15.53;96.55
6433;BME280;3249;42.690;23.260;2023-10-31T09:27:37;94230.13;;;15.50;100.00
6433;BME280;3249;42.690;23.260;2023-10-31T09:30:09;94222.94;;;15.57;98.92
6433;BME280;3249;42.690;23.260;2023-10-31T09:32:38;94216.28;;;15.71;100.00
6433;BME280;3249;42.690;23.260;2023-10-31T09:35:08;94200.06;;;15.86;96.84
6433;BME280;3249;42.690;23.260;2023-10-31T09:37:38;94208.78;;;16.11;93.85
6433;BME280;3249;42.690;23.260;2023-10-31T09:40:09;94203.41;;;16.28;91.50
6433;BME280;3249;42.690;23.260;2023-10-31T09:42:38;94200.50;;;16.19;92.46
6433;BME280;3249;42.690;23.260;2023-10-31T09:45:10;94194.88;;;16.37;89.01
6433;BME280;3249;42.690;23.260;2023-10-31T09:47:39;94189.72;;;16.42;90.43
6433;BME280;3249;42.690;23.260;2023-10-31T09:50:10;94190.34;;;16.64;88.42
6433;BME280;3249;42.690;23.260;2023-10-31T09:52:39;94181.53;;;16.75;88.04
6433;BME280;3249;42.690;23.260;2023-10-31T09:55:08;94199.50;;;16.92;85.29
6433;BME280;3249;42.690;23.260;2023-10-31T09:57:37;94181.34;;;17.02;84.95
6433;BME280;3249;42.690;23.260;2023-10-31T10:00:10;94187.63;;;17.21;83.13
6433;BME280;3249;42.690;23.260;2023-10-31T10:02:39;94176.69;;;17.14;81.40
6433;BME280;3249;42.690;23.260;2023-10-31T10:05:09;94161.31;;;17.17;82.86
6433;BME280;3249;42.690;23.260;2023-10-31T10:07:41;94161.84;;;17.09;80.93
6433;BME280;3249;42.690;23.260;2023-10-31T10:10:11;94157.16;;;17.16;79.81
6433;BME280;3249;42.690;23.260;2023-10-31T10:12:41;94141.56;;;17.36;78.62
6433;BME280;3249;42.690;23.260;2023-10-31T10:15:15;94143.41;;;17.51;77.80
6433;BME280;3249;42.690;23.260;2023-10-31T10:17:48;94138.44;;;17.79;74.11
6433;BME280;3249;42.690;23.260;2023-10-31T10:20:19;94124.88;;;17.77;72.87
6433;BME280;3249;42.690;23.260;2023-10-31T10:22:48;94130.16;;;17.62;74.74
6433;BME280;3249;42.690;23.260;2023-10-31T10:25:18;94133.78;;;17.56;74.01
6433;BME280;3249;42.690;23.260;2023-10-31T10:27:47;94131.66;;;17.83;76.32
6433;BME280;3249;42.690;23.260;2023-10-31T10:30:19;94129.56;;;17.95;73.24
6433;BME280;3249;42.690;23.260;2023-10-31T10:32:49;94127.22;;;17.94;72.88
6433;BME280;3249;42.690;23.260;2023-10-31T10:35:18;94131.56;;;18.13;69.56
6433;BME280;3249;42.690;23.260;2023-10-31T10:37:48;94120.16;;;17.99;66.32
6433;BME280;3249;42.690;23.260;2023-10-31T10:40:20;94109.47;;;18.01;67.24
6433;BME280;3249;42.690;23.260;2023-10-31T10:42:50;94107.59;;;18.17;66.40
6433;BME280;3249;42.690;23.260;2023-10-31T10:45:25;94096.81;;;18.48;68.11
6433;BME280;3249;42.690;23.260;2023-10-31T10:47:56;94082.78;;;18.34;68.33
6433;BME280;3249;42.690;23.260;2023-10-31T10:50:29;94073.53;;;18.62;62.46
6433;BME280;3249;42.690;23.260;2023-10-31T10:53:06;94074.16;;;18.82;59.31
6433;BME280;3249;42.690;23.260;2023-10-31T10:55:39;94078.28;;;18.50;63.23
6433;BME280;3249;42.690;23.260;2023-10-31T10:58:16;94076.25;;;18.37;61.72
6433;BME280;3249;42.690;23.260;2023-10-31T11:00:50;94080.84;;;18.60;58.98
6433;BME280;3249;42.690;23.260;2023-10-31T11:03:21;94087.97;;;18.88;54.98
6433;BME280;3249;42.690;23.260;2023-10-31T11:05:51;94077.22;;;18.94;56.72
6433;BME280;3249;42.690;23.260;2023-10-31T11:08:20;94067.63;;;19.23;55.81
6433;BME280;3249;42.690;23.260;2023-10-31T11:10:53;94071.50;;;19.31;53.35
6433;BME280;3249;42.690;23.260;2023-10-31T11:13:23;94061.81;;;19.60;53.60
6433;BME280;3249;42.690;23.260;2023-10-31T11:15:59;94053.91;;;19.65;50.21
6433;BME280;3249;42.690;23.260;2023-10-31T11:18:30;94064.22;;;19.80;49.52
6433;BME280;3249;42.690;23.260;2023-10-31T11:20:59;94054.31;;;19.77;48.04
6433;BME280;3249;42.690;23.260;2023-10-31T11:23:28;94047.53;;;19.76;46.94
6433;BME280;3249;42.690;23.260;2023-10-31T11:25:57;94049.28;;;19.85;46.59
6433;BME280;3249;42.690;23.260;2023-10-31T11:28:29;94037.22;;;19.66;46.06
6433;BME280;3249;42.690;23.260;2023-10-31T11:31:03;94039.25;;;19.69;44.83
6433;BME280;3249;42.690;23.260;2023-10-31T11:33:42;93948.13;;;18.92;44.11
6433;BME280;3249;42.690;23.260;2023-10-31T11:36:14;94027.06;;;19.36;44.15
6433;BME280;3249;42.690;23.260;2023-10-31T11:38:44;94032.47;;;19.68;42.47
6433;BME280;3249;42.690;23.260;2023-10-31T11:41:13;94014.03;;;19.83;41.76
6433;BME280;3249;42.690;23.260;2023-10-31T11:43:52;94012.81;;;19.52;43.50
6433;BME280;3249;42.690;23.260;2023-10-31T11:46:24;94021.22;;;19.72;42.04
6433;BME280;3249;42.690;23.260;2023-10-31T11:48:55;94020.16;;;19.97;39.83
6433;BME280;3249;42.690;23.260;2023-10-31T11:51:26;94007.84;;;19.97;39.49
6433;BME280;3249;42.690;23.260;2023-10-31T11:53:56;94018.63;;;20.14;39.04
6433;BME280;3249;42.690;23.260;2023-10-31T11:56:25;94015.75;;;20.16;37.51
6433;BME280;3249;42.690;23.260;2023-10-31T11:59:02;94012.19;;;20.07;38.31
6433;BME280;3249;42.690;23.260;2023-10-31T12:01:44;94005.28;;;19.69;38.39
6433;BME280;3249;42.690;23.260;2023-10-31T12:04:21;93977.78;;;19.53;38.95
6433;BME280;3249;42.690;23.260;2023-10-31T12:06:58;93996.53;;;19.83;39.43
6433;BME280;3249;42.690;23.260;2023-10-31T12:09:27;93994.38;;;20.09;36.96
6433;BME280;3249;42.690;23.260;2023-10-31T12:11:56;93993.88;;;20.07;38.46
6433;BME280;3249;42.690;23.260;2023-10-31T12:14:25;93977.84;;;19.95;39.42
6433;BME280;3249;42.690;23.260;2023-10-31T12:17:03;93996.09;;;20.18;37.13
6433;BME280;3249;42.690;23.260;2023-10-31T12:19:32;93996.69;;;20.34;36.30
6433;BME280;3249;42.690;23.260;2023-10-31T12:22:11;93996.34;;;20.22;37.12
6433;BME280;3249;42.690;23.260;2023-10-31T12:24:40;93979.47;;;20.33;36.93
6433;BME280;3249;42.690;23.260;2023-10-31T12:27:09;93975.13;;;20.60;36.82
6433;BME280;3249;42.690;23.260;2023-10-31T12:29:38;93970.91;;;20.78;36.15
6433;BME280;3249;42.690;23.260;2023-10-31T12:32:12;93974.59;;;20.95;36.48
6433;BME280;3249;42.690;23.260;2023-10-31T12:34:43;93961.28;;;20.92;36.97
6433;BME280;3249;42.690;23.260;2023-10-31T12:37:22;93962.78;;;20.98;37.28
6433;BME280;3249;42.690;23.260;2023-10-31T12:39:51;93955.78;;;20.75;38.77
6433;BME280;3249;42.690;23.260;2023-10-31T12:42:21;93951.94;;;20.86;38.47
6433;BME280;3249;42.690;23.260;2023-10-31T12:44:55;93936.25;;;20.86;38.39
6433;BME280;3249;42.690;23.260;2023-10-31T12:47:27;93907.72;;;20.71;39.22
6433;BME280;3249;42.690;23.260;2023-10-31T12:50:27;93934.38;;;20.91;39.52
6433;BME280;3249;42.690;23.260;2023-10-31T12:53:00;93953.50;;;20.87;39.62
6433;BME280;3249;42.690;23.260;2023-10-31T12:56:01;93940.97;;;20.84;40.16
6433;BME280;3249;42.690;23.260;2023-10-31T12:59:11;93941.50;;;20.86;39.08
6433;BME280;3249;42.690;23.260;2023-10-31T13:01:56;93943.41;;;20.80;39.41
6433;BME280;3249;42.690;23.260;2023-10-31T13:04:29;93952.03;;;20.81;39.36
6433;BME280;3249;42.690;23.260;2023-10-31T13:07:02;93940.13;;;20.88;39.48
6433;BME280;3249;42.690;23.260;2023-10-31T13:09:50;93935.13;;;20.23;40.24
6433;BME280;3249;42.690;23.260;2023-10-31T13:12:18;93939.09;;;20.39;40.06
6433;BME280;3249;42.690;23.260;2023-10-31T13:14:55;93945.50;;;20.65;39.54
6433;BME280;3249;42.690;23.260;2023-10-31T13:17:28;93929.09;;;20.59;39.91
6433;BME280;3249;42.690;23.260;2023-10-31T13:20:25;93913.38;;;20.09;40.85
6433;BME280;3249;42.690;23.260;2023-10-31T13:22:55;93912.88;;;20.07;41.97
6433;BME280;3249;42.690;23.260;2023-10-31T13:25:29;93926.00;;;20.39;41.05
6433;BME280;3249;42.690;23.260;2023-10-31T13:28:06;93926.69;;;20.63;41.06